Time;durP1;ratioP1;P1;durP2;ratioP2;P2;SDS_P1;SDS_P2;PMS_P1;PMS_P2;Temp;Humidity;BMP_temperature;BMP_pressure;BME280_temperature;BME280_humidity;BME280_pressure;Samples;Min_cycle;Max_cycle;Signal;HPM_P1;HPM_P2
2023/05/16 00:00:27;;;;;;;;;;;;;;;15.86;66.24;101652.84;1243476;23;789;-67
2023/05/16 00:01:18;;;;;;;;;;;;;;;15.91;66.05;101655.19;1242680;23;643;-67
2023/05/16 00:02:08;;;;;;;;;;;;;;;15.98;66.16;101659.13;1241608;23;679;-66
2023/05/16 00:02:59;;;;;;;;;;;;;;;15.91;65.34;101657.88;1243211;23;663;-66
2023/05/16 00:03:50;;;;;;;;;;;;;;;15.90;66.48;101659.72;1243146;23;639;-67
2023/05/16 00:04:40;;;;;;;;;;;;;;;15.88;66.26;101658.09;1242519;23;713;-67
2023/05/16 00:05:31;;;;;;;;;;;;;;;15.85;65.78;101655.63;1243168;23;658;-67
2023/05/16 00:06:21;;;;;;;;;;;;;;;15.87;66.19;101664.44;1241098;23;659;-67
2023/05/16 00:07:12;;;;;;;;;;;;;;;15.80;66.14;101660.47;1242692;23;620;-67
2023/05/16 00:08:02;;;;;;;;;;;;;;;15.82;66.36;101669.28;1242222;23;619;-66
2023/05/16 00:08:53;;;;;;;;;;;;;;;15.86;66.42;101666.28;1243233;23;662;-66
2023/05/16 00:09:43;;;;;;;;;;;;;;;15.82;65.33;101666.59;1242355;23;635;-66
2023/05/16 00:10:34;;;;;;;;;;;;;;;15.83;66.48;101671.88;1242460;23;678;-66
2023/05/16 00:11:24;;;;;;;;;;;;;;;15.81;66.42;101660.38;1241315;23;890;-65
2023/05/16 00:12:16;;;;;;;;;;;;;;;15.85;66.50;101667.25;1241785;23;678;-66
2023/05/16 00:13:07;;;;;;;;;;;;;;;15.88;66.12;101666.16;1243398;23;611;-66
2023/05/16 00:13:57;;;;;;;;;;;;;;;15.88;66.01;101652.72;1242674;23;642;-66
2023/05/16 00:14:49;;;;;;;;;;;;;;;15.87;66.46;101659.06;1241742;23;635;-66
2023/05/16 00:15:39;;;;;;;;;;;;;;;15.88;65.22;101660.78;1242435;23;639;-66
2023/05/16 00:16:30;;;;;;;;;;;;;;;15.89;66.17;101660.69;1242490;23;634;-66
2023/05/16 00:17:20;;;;;;;;;;;;;;;15.91;66.36;101664.13;1242751;23;734;-66
2023/05/16 00:18:14;;;;;;;;;;;;;;;15.91;65.76;101656.03;1241622;23;647;-66
2023/05/16 00:19:05;;;;;;;;;;;;;;;15.89;66.20;101662.50;1242416;23;654;-67
2023/05/16 00:19:57;;;;;;;;;;;;;;;15.87;66.29;101661.75;1242298;23;658;-66
2023/05/16 00:20:48;;;;;;;;;;;;;;;15.77;66.21;101660.69;1243277;23;626;-66
2023/05/16 00:21:38;;;;;;;;;;;;;;;15.78;66.43;101660.59;1242406;23;634;-66
2023/05/16 00:22:29;;;;;;;;;;;;;;;15.83;66.31;101660.25;1241702;23;604;-67
2023/05/16 00:23:19;;;;;;;;;;;;;;;15.82;66.34;101655.84;1242378;23;1893;-66
2023/05/16 00:24:09;;;;;;;;;;;;;;;15.87;66.12;101661.75;1241460;23;663;-66
2023/05/16 00:25:00;;;;;;;;;;;;;;;15.82;64.59;101662.09;1243142;23;677;-66
2023/05/16 00:25:51;;;;;;;;;;;;;;;15.73;65.04;101668.16;1242405;23;760;-66
2023/05/16 00:26:41;;;;;;;;;;;;;;;15.77;66.62;101669.63;1243106;23;709;-66
2023/05/16 00:27:32;;;;;;;;;;;;;;;15.78;66.39;101675.84;1242739;23;635;-67
2023/05/16 00:28:22;;;;;;;;;;;;;;;15.79;65.41;101667.69;1243491;23;666;-66
2023/05/16 00:29:13;;;;;;;;;;;;;;;15.81;66.01;101667.56;1243447;23;634;-66
2023/05/16 00:30:03;;;;;;;;;;;;;;;15.78;65.14;101667.78;1243363;23;729;-66
2023/05/16 00:30:54;;;;;;;;;;;;;;;15.80;65.97;101658.66;1241580;23;647;-66
2023/05/16 00:31:44;;;;;;;;;;;;;;;15.85;65.82;101671.75;1242603;23;631;-66
2023/05/16 00:32:35;;;;;;;;;;;;;;;15.84;65.98;101672.72;1241684;23;647;-66
2023/05/16 00:33:25;;;;;;;;;;;;;;;15.77;66.16;101668.75;1242547;23;643;-66
2023/05/16 00:34:16;;;;;;;;;;;;;;;15.80;66.29;101668.53;1242230;23;635;-66
2023/05/16 00:35:09;;;;;;;;;;;;;;;15.84;66.09;101670.03;1242628;23;626;-66
2023/05/16 00:35:59;;;;;;;;;;;;;;;15.84;66.04;101660.16;1241618;23;674;-66
2023/05/16 00:36:50;;;;;;;;;;;;;;;15.87;66.06;101664.44;1241778;23;608;-66
2023/05/16 00:37:40;;;;;;;;;;;;;;;15.79;65.96;101662.31;1243392;23;634;-66
2023/05/16 00:38:31;;;;;;;;;;;;;;;15.82;66.16;101664.78;1241556;23;666;-66
2023/05/16 00:39:21;;;;;;;;;;;;;;;15.80;66.06;101665.84;1242572;23;692;-66
2023/05/16 00:40:12;;;;;;;;;;;;;;;15.83;66.39;101660.25;1241284;23;650;-66
2023/05/16 00:41:03;;;;;;;;;;;;;;;15.79;66.31;101669.50;1243239;23;712;-66
2023/05/16 00:41:53;;;;;;;;;;;;;;;15.79;64.47;101664.13;1237170;24;760;-66
2023/05/16 00:42:44;;;;;;;;;;;;;;;15.79;66.16;101667.69;1236555;24;615;-66
2023/05/16 00:43:34;;;;;;;;;;;;;;;15.85;66.65;101675.31;1242509;23;1893;-66
2023/05/16 00:44:25;;;;;;;;;;;;;;;15.84;65.99;101670.03;1242480;23;1001;-66
2023/05/16 00:45:15;;;;;;;;;;;;;;;15.83;66.30;101673.69;1242411;23;607;-66
2023/05/16 00:46:06;;;;;;;;;;;;;;;15.84;66.56;101667.34;1242668;23;646;-67
2023/05/16 00:46:57;;;;;;;;;;;;;;;15.82;66.13;101666.59;1241734;23;722;-66
2023/05/16 00:47:47;;;;;;;;;;;;;;;15.81;66.46;101671.13;1242504;23;677;-66
2023/05/16 00:48:38;;;;;;;;;;;;;;;15.86;66.42;101668.09;1241744;23;654;-66
2023/05/16 00:49:28;;;;;;;;;;;;;;;15.89;66.21;101667.88;1241979;23;674;-66
2023/05/16 00:50:18;;;;;;;;;;;;;;;15.90;66.11;101667.78;1240834;23;646;-66
2023/05/16 00:51:09;;;;;;;;;;;;;;;15.89;66.17;101662.50;1242426;23;631;-66
2023/05/16 00:51:59;;;;;;;;;;;;;;;15.90;66.23;101662.41;1241966;23;638;-66
2023/05/16 00:52:50;;;;;;;;;;;;;;;15.88;66.31;101666.16;1242405;23;678;-67
2023/05/16 00:53:40;;;;;;;;;;;;;;;15.87;66.07;101665.31;1242362;23;662;-66
2023/05/16 00:54:31;;;;;;;;;;;;;;;15.84;65.35;101665.53;1242429;23;643;-66
2023/05/16 00:55:21;;;;;;;;;;;;;;;15.80;66.50;101668.53;1241699;23;713;-66
2023/05/16 00:56:11;;;;;;;;;;;;;;;15.80;66.53;101663.16;1241438;23;647;-66
2023/05/16 00:57:02;;;;;;;;;;;;;;;15.80;66.49;101668.53;1243122;23;587;-66
2023/05/16 00:57:52;;;;;;;;;;;;;;;15.82;66.50;101667.47;1242279;23;705;-66
2023/05/16 00:58:43;;;;;;;;;;;;;;;15.83;66.31;101658.44;1241858;23;662;-67
2023/05/16 00:59:33;;;;;;;;;;;;;;;15.82;65.45;101663.91;1242563;23;702;-66
2023/05/16 01:00:24;;;;;;;;;;;;;;;15.72;65.94;101661.06;1241574;23;608;-66
2023/05/16 01:01:14;;;;;;;;;;;;;;;15.78;66.49;101670.47;1243252;23;694;-66
2023/05/16 01:02:05;;;;;;;;;;;;;;;15.78;66.42;101671.34;1241559;23;784;-67
2023/05/16 01:02:55;;;;;;;;;;;;;;;15.79;66.35;101666.81;1236700;24;666;-67
2023/05/16 01:03:45;;;;;;;;;;;;;;;15.74;66.03;101669.03;1236166;24;666;-66
2023/05/16 01:04:36;;;;;;;;;;;;;;;15.77;66.29;101675.00;1241445;23;676;-66
2023/05/16 01:05:26;;;;;;;;;;;;;;;15.72;66.51;101665.59;1243181;23;626;-67
2023/05/16 01:06:17;;;;;;;;;;;;;;;15.73;66.35;101678.06;1242973;23;705;-66
2023/05/16 01:07:07;;;;;;;;;;;;;;;15.76;66.37;101667.94;1241676;23;666;-67
2023/05/16 01:07:58;;;;;;;;;;;;;;;15.78;66.31;101671.34;1236920;24;619;-66
2023/05/16 01:08:48;;;;;;;;;;;;;;;15.77;66.31;101658.00;1236537;24;662;-67
2023/05/16 01:09:39;;;;;;;;;;;;;;;15.76;66.16;101662.56;1242276;23;623;-67
2023/05/16 01:10:29;;;;;;;;;;;;;;;15.80;66.33;101657.78;1241537;23;623;-67
2023/05/16 01:11:20;;;;;;;;;;;;;;;15.77;66.11;101660.69;1243195;23;614;-67
2023/05/16 01:12:10;;;;;;;;;;;;;;;15.79;66.30;101661.44;1241589;23;662;-67
2023/05/16 01:13:01;;;;;;;;;;;;;;;15.82;66.12;101663.91;1242553;23;638;-67
2023/05/16 01:13:51;;;;;;;;;;;;;;;15.82;66.36;101663.91;1242596;23;658;-67
2023/05/16 01:14:42;;;;;;;;;;;;;;;15.85;66.21;101666.38;1241238;23;611;-67
2023/05/16 01:15:32;;;;;;;;;;;;;;;15.80;66.17;101655.97;1241923;23;647;-67
2023/05/16 01:16:22;;;;;;;;;;;;;;;15.83;66.46;101662.94;1242273;23;717;-67
2023/05/16 01:17:13;;;;;;;;;;;;;;;15.85;66.37;101661.00;1237290;24;670;-67
2023/05/16 01:18:03;;;;;;;;;;;;;;;15.84;66.18;101659.28;1236464;24;705;-67
2023/05/16 01:18:54;;;;;;;;;;;;;;;15.85;66.03;101661.00;1241850;23;627;-67
2023/05/16 01:19:44;;;;;;;;;;;;;;;15.83;66.05;101658.44;1242666;23;675;-67
2023/05/16 01:20:35;;;;;;;;;;;;;;;15.82;65.98;101671.97;1243452;23;631;-67
2023/05/16 01:21:27;;;;;;;;;;;;;;;15.82;66.17;101661.22;1242184;23;746;-66
2023/05/16 01:22:18;;;;;;;;;;;;;;;15.82;66.40;101662.09;1243491;23;723;-67
2023/05/16 01:23:09;;;;;;;;;;;;;;;15.83;66.13;101660.25;1241681;23;655;-67
2023/05/16 01:23:59;;;;;;;;;;;;;;;15.81;65.80;101664.88;1243462;23;627;-66
2023/05/16 01:24:50;;;;;;;;;;;;;;;15.78;66.25;101668.66;1242588;23;666;-66
2023/05/16 01:25:41;;;;;;;;;;;;;;;15.80;65.87;101660.47;1243549;23;541;-66
2023/05/16 01:26:31;;;;;;;;;;;;;;;15.79;66.31;101666.81;1243621;23;646;-66
2023/05/16 01:27:22;;;;;;;;;;;;;;;15.70;65.24;101662.16;1242713;23;659;-66
2023/05/16 01:28:13;;;;;;;;;;;;;;;15.69;66.41;101665.81;1243388;23;618;-66
2023/05/16 01:29:03;;;;;;;;;;;;;;;15.70;66.30;101668.38;1241724;23;1209;-66
2023/05/16 01:29:54;;;;;;;;;;;;;;;15.71;66.24;101669.25;1241851;23;619;-66
2023/05/16 01:30:44;;;;;;;;;;;;;;;15.72;65.98;101671.81;1242770;23;639;-66
2023/05/16 01:31:35;;;;;;;;;;;;;;;15.73;66.13;101672.66;1243776;23;885;-66
2023/05/16 01:32:25;;;;;;;;;;;;;;;15.70;66.22;101672.91;1242916;23;591;-66
2023/05/16 01:33:15;;;;;;;;;;;;;;;15.71;66.14;101670.09;1241906;23;655;-66
2023/05/16 01:34:06;;;;;;;;;;;;;;;15.70;66.46;101678.25;1242889;23;651;-66
2023/05/16 01:34:57;;;;;;;;;;;;;;;15.71;66.44;101674.59;1241814;23;708;-67
2023/05/16 01:35:47;;;;;;;;;;;;;;;15.69;66.08;101676.56;1241963;23;631;-67
2023/05/16 01:36:38;;;;;;;;;;;;;;;15.70;66.10;101678.25;1242534;23;673;-66
2023/05/16 01:37:28;;;;;;;;;;;;;;;15.71;66.32;101677.31;1243497;23;603;-66
2023/05/16 01:38:18;;;;;;;;;;;;;;;15.73;66.22;101678.06;1242704;23;631;-66
2023/05/16 01:39:09;;;;;;;;;;;;;;;15.73;66.12;101675.34;1242657;23;623;-66
2023/05/16 01:39:59;;;;;;;;;;;;;;;15.73;66.20;101667.28;1241916;23;701;-66
2023/05/16 01:40:50;;;;;;;;;;;;;;;15.76;66.17;101673.31;1241870;23;666;-66
2023/05/16 01:41:41;;;;;;;;;;;;;;;15.77;66.21;101674.13;1241827;23;667;-67
2023/05/16 01:42:31;;;;;;;;;;;;;;;15.77;65.92;101671.44;1243545;23;713;-67
2023/05/16 01:43:21;;;;;;;;;;;;;;;15.78;66.02;101667.78;1242484;23;1939;-66
2023/05/16 01:44:12;;;;;;;;;;;;;;;15.77;65.92;101671.44;1242182;23;663;-66
2023/05/16 01:45:02;;;;;;;;;;;;;;;15.73;66.05;101673.53;1242230;23;701;-66
2023/05/16 01:45:53;;;;;;;;;;;;;;;15.70;66.43;101680.94;1242781;23;603;-66
2023/05/16 01:46:43;;;;;;;;;;;;;;;15.68;66.20;101677.50;1241998;23;623;-67
2023/05/16 01:47:34;;;;;;;;;;;;;;;15.72;66.43;101676.31;1243524;23;983;-67
2023/05/16 01:48:25;;;;;;;;;;;;;;;15.75;66.52;101676.09;1241943;23;643;-66
2023/05/16 01:49:16;;;;;;;;;;;;;;;15.76;66.02;101675.16;1242263;23;670;-66
2023/05/16 01:50:06;;;;;;;;;;;;;;;15.74;66.22;101675.25;1243642;23;662;-66
2023/05/16 01:50:57;;;;;;;;;;;;;;;15.72;66.88;101670.94;1242678;23;678;-66
2023/05/16 01:51:47;;;;;;;;;;;;;;;15.70;66.20;101678.25;1242619;23;607;-66
2023/05/16 01:52:38;;;;;;;;;;;;;;;15.68;66.77;101683.75;1242560;23;619;-66
2023/05/16 01:53:28;;;;;;;;;;;;;;;15.65;66.29;101681.28;1241989;23;773;-67
2023/05/16 01:54:19;;;;;;;;;;;;;;;15.70;66.67;101683.63;1243641;23;811;-66
2023/05/16 01:55:10;;;;;;;;;;;;;;;15.74;66.69;101677.06;1242900;23;706;-66
2023/05/16 01:56:00;;;;;;;;;;;;;;;15.73;66.59;101680.72;1242736;23;667;-66
2023/05/16 01:56:51;;;;;;;;;;;;;;;15.71;66.52;101686.22;1242777;23;631;-66
2023/05/16 01:57:42;;;;;;;;;;;;;;;15.71;66.32;101679.97;1242022;23;655;-66
2023/05/16 01:58:33;;;;;;;;;;;;;;;15.69;66.67;101679.22;1243209;23;639;-66
2023/05/16 01:59:23;;;;;;;;;;;;;;;15.70;66.08;101683.63;1242115;23;616;-66
2023/05/16 02:00:14;;;;;;;;;;;;;;;15.71;66.24;101679.97;1243309;23;701;-67
2023/05/16 02:01:04;;;;;;;;;;;;;;;15.72;66.24;101681.69;1242196;23;722;-66
2023/05/16 02:01:55;;;;;;;;;;;;;;;15.73;66.29;101688.78;1243641;23;658;-66
2023/05/16 02:02:45;;;;;;;;;;;;;;;15.70;66.28;101689.00;1242812;23;658;-66
2023/05/16 02:03:36;;;;;;;;;;;;;;;15.70;66.37;101684.50;1242721;23;1897;-66
2023/05/16 02:04:26;;;;;;;;;;;;;;;15.74;66.38;101690.50;1241989;23;620;-66
2023/05/16 02:05:17;;;;;;;;;;;;;;;15.72;66.38;101687.09;1241642;23;674;-66
2023/05/16 02:06:07;;;;;;;;;;;;;;;15.71;66.20;101682.66;1242013;23;627;-66
2023/05/16 02:06:59;;;;;;;;;;;;;;;15.72;66.14;101690.63;1242002;23;695;-66
2023/05/16 02:07:49;;;;;;;;;;;;;;;15.72;66.38;101687.94;1243675;23;650;-66
2023/05/16 02:08:40;;;;;;;;;;;;;;;15.69;65.79;101684.59;1241987;23;607;-66
2023/05/16 02:09:30;;;;;;;;;;;;;;;15.64;66.48;101695.69;1242649;23;706;-66
2023/05/16 02:10:21;;;;;;;;;;;;;;;15.68;66.60;101699.88;1242573;23;627;-66
2023/05/16 02:11:11;;;;;;;;;;;;;;;15.65;66.26;101688.47;1242617;23;737;-66
2023/05/16 02:12:02;;;;;;;;;;;;;;;15.64;66.93;101695.69;1241719;23;616;-66
2023/05/16 02:12:52;;;;;;;;;;;;;;;15.65;66.33;101697.41;1241827;23;616;-66
2023/05/16 02:13:43;;;;;;;;;;;;;;;15.67;66.19;101699.97;1237343;24;646;-66
2023/05/16 02:14:33;;;;;;;;;;;;;;;15.69;66.13;101703.41;1236547;24;663;-66
2023/05/16 02:15:24;;;;;;;;;;;;;;;15.70;66.18;101695.25;1236001;24;624;-66
2023/05/16 02:16:14;;;;;;;;;;;;;;;15.69;66.56;101692.66;1244286;23;630;-66
2023/05/16 02:17:05;;;;;;;;;;;;;;;15.73;66.29;101695.03;1241247;23;631;-66
2023/05/16 02:17:55;;;;;;;;;;;;;;;15.75;66.21;101700.28;1243004;23;682;-66
2023/05/16 02:18:46;;;;;;;;;;;;;;;15.73;66.06;101694.16;1243708;23;631;-66
2023/05/16 02:19:36;;;;;;;;;;;;;;;15.74;66.30;101695.88;1242154;23;667;-66
2023/05/16 02:20:27;;;;;;;;;;;;;;;15.72;65.99;101685.25;1242778;23;739;-66
2023/05/16 02:21:17;;;;;;;;;;;;;;;15.69;66.25;101693.53;1242765;23;662;-66
2023/05/16 02:22:07;;;;;;;;;;;;;;;15.65;65.83;101693.84;1243600;23;671;-66
2023/05/16 02:22:58;;;;;;;;;;;;;;;15.63;66.42;101693.97;1242711;23;631;-66
2023/05/16 02:23:48;;;;;;;;;;;;;;;15.58;64.77;101691.63;1242175;23;710;-66
2023/05/16 02:24:39;;;;;;;;;;;;;;;15.62;66.44;101697.63;1242722;23;658;-66
2023/05/16 02:25:29;;;;;;;;;;;;;;;15.65;66.25;101693.84;1242037;23;666;-66
2023/05/16 02:26:20;;;;;;;;;;;;;;;15.67;66.33;101692.78;1242788;23;651;-66
2023/05/16 02:27:11;;;;;;;;;;;;;;;15.67;66.32;101697.28;1242729;23;739;-67
2023/05/16 02:28:01;;;;;;;;;;;;;;;15.69;66.23;101692.66;1242868;23;758;-66
2023/05/16 02:28:53;;;;;;;;;;;;;;;15.67;66.43;101698.16;1242682;23;631;-66
2023/05/16 02:29:43;;;;;;;;;;;;;;;15.68;66.20;101696.31;1242899;23;626;-66
2023/05/16 02:30:34;;;;;;;;;;;;;;;15.69;66.26;101689.97;1242318;23;646;-66
2023/05/16 02:31:24;;;;;;;;;;;;;;;15.72;66.16;101697.81;1242149;23;606;-66
2023/05/16 02:32:15;;;;;;;;;;;;;;;15.73;66.25;101700.41;1242143;23;630;-67
2023/05/16 02:33:05;;;;;;;;;;;;;;;15.70;65.44;101697.06;1242861;23;654;-66
2023/05/16 02:33:55;;;;;;;;;;;;;;;15.69;66.02;101692.66;1243756;23;637;-67
2023/05/16 02:34:46;;;;;;;;;;;;;;;15.67;66.25;101702.66;1243680;23;630;-66
2023/05/16 02:35:36;;;;;;;;;;;;;;;15.66;66.58;101703.63;1242929;23;686;-66
2023/05/16 02:36:27;;;;;;;;;;;;;;;15.63;66.61;101702.03;1242771;23;693;-66
2023/05/16 02:37:17;;;;;;;;;;;;;;;15.65;66.23;101702.78;1237414;24;661;-66
2023/05/16 02:38:08;;;;;;;;;;;;;;;15.67;66.28;101699.97;1236690;24;686;-66
2023/05/16 02:38:58;;;;;;;;;;;;;;;15.65;66.31;101707.28;1242869;23;634;-66
2023/05/16 02:39:49;;;;;;;;;;;;;;;15.62;66.33;101708.38;1243511;23;594;-66
2023/05/16 02:40:39;;;;;;;;;;;;;;;15.65;66.43;101702.78;1242003;23;611;-66
2023/05/16 02:41:30;;;;;;;;;;;;;;;15.67;66.36;101705.34;1242825;23;626;-66
2023/05/16 02:42:21;;;;;;;;;;;;;;;15.70;66.38;101708.69;1242787;23;701;-67
2023/05/16 02:43:11;;;;;;;;;;;;;;;15.69;66.16;101714.16;1237497;24;579;-66
2023/05/16 02:44:01;;;;;;;;;;;;;;;15.64;66.11;101701.06;1237303;23;673;-66
2023/05/16 02:44:52;;;;;;;;;;;;;;;15.65;65.94;101707.28;1242605;23;634;-66
2023/05/16 02:45:42;;;;;;;;;;;;;;;15.63;66.55;101705.56;1242882;23;635;-66
2023/05/16 02:46:33;;;;;;;;;;;;;;;15.64;66.06;101706.44;1242873;23;594;-66
2023/05/16 02:47:23;;;;;;;;;;;;;;;15.64;66.30;101703.75;1242520;23;658;-66
2023/05/16 02:48:13;;;;;;;;;;;;;;;15.66;66.42;101698.25;1243623;23;661;-66
2023/05/16 02:49:04;;;;;;;;;;;;;;;15.65;65.62;101708.16;1247875;23;1240;-66
2023/05/16 02:49:55;;;;;;;;;;;;;;;15.66;66.17;101700.94;1249602;23;628;-66
2023/05/16 02:50:45;;;;;;;;;;;;;;;15.67;66.11;101705.34;1251073;23;684;-66
2023/05/16 02:51:36;;;;;;;;;;;;;;;15.68;66.11;101705.25;1251272;23;672;-66
2023/05/16 02:52:26;;;;;;;;;;;;;;;15.68;66.39;101702.56;1251111;23;685;-66
2023/05/16 02:53:17;;;;;;;;;;;;;;;15.65;66.01;101704.59;1251286;23;743;-66
2023/05/16 02:54:08;;;;;;;;;;;;;;;15.63;66.24;101705.56;1251104;23;650;-66
2023/05/16 02:54:59;;;;;;;;;;;;;;;15.61;66.03;101702.13;1246822;23;627;-66
2023/05/16 02:55:49;;;;;;;;;;;;;;;15.61;66.23;101704.81;1251049;23;661;-66
2023/05/16 02:56:39;;;;;;;;;;;;;;;15.64;65.92;101709.13;1250865;23;645;-66
2023/05/16 02:57:30;;;;;;;;;;;;;;;15.67;66.12;101710.72;1251346;23;664;-66
2023/05/16 02:58:20;;;;;;;;;;;;;;;15.68;66.12;101707.06;1247222;23;674;-66
2023/05/16 02:59:12;;;;;;;;;;;;;;;15.67;66.05;101710.72;1251181;23;653;-66
2023/05/16 03:00:04;;;;;;;;;;;;;;;15.66;65.84;101706.31;1247006;23;635;-66
2023/05/16 03:00:55;;;;;;;;;;;;;;;15.67;66.11;101716.97;1251197;23;630;-66
2023/05/16 03:01:45;;;;;;;;;;;;;;;15.67;66.10;101710.72;1251179;23;716;-66
2023/05/16 03:02:36;;;;;;;;;;;;;;;15.61;66.42;101712.88;1246797;23;659;-67
2023/05/16 03:03:26;;;;;;;;;;;;;;;15.59;66.09;101709.44;1251097;23;1898;-67
2023/05/16 03:04:17;;;;;;;;;;;;;;;15.61;66.28;101718.25;1251095;23;668;-66
2023/05/16 03:05:08;;;;;;;;;;;;;;;15.62;66.50;101711.06;1251113;23;673;-66
2023/05/16 03:05:59;;;;;;;;;;;;;;;15.65;66.41;101721.59;1249454;23;696;-66
2023/05/16 03:06:50;;;;;;;;;;;;;;;15.68;66.30;101723.19;1251005;23;629;-66
2023/05/16 03:07:40;;;;;;;;;;;;;;;15.67;66.24;101716.09;1251117;23;544;-66
2023/05/16 03:08:31;;;;;;;;;;;;;;;15.63;65.86;101721.69;1250925;23;665;-66
2023/05/16 03:09:21;;;;;;;;;;;;;;;15.61;66.21;101723.63;1251177;23;669;-66
2023/05/16 03:10:12;;;;;;;;;;;;;;;15.54;66.17;101716.97;1251276;23;622;-66
2023/05/16 03:11:02;;;;;;;;;;;;;;;15.52;66.34;101718.03;1251035;23;669;-66
2023/05/16 03:11:53;;;;;;;;;;;;;;;15.58;66.29;101717.66;1250960;23;641;-66
2023/05/16 03:12:43;;;;;;;;;;;;;;;15.59;66.13;101714.81;1246908;23;690;-65
2023/05/16 03:13:33;;;;;;;;;;;;;;;15.61;65.89;101717.41;1251081;23;693;-65
2023/05/16 03:14:24;;;;;;;;;;;;;;;15.63;66.10;101713.63;1251183;23;610;-65
2023/05/16 03:15:15;;;;;;;;;;;;;;;15.65;66.08;101718.03;1246556;23;643;-65
2023/05/16 03:16:06;;;;;;;;;;;;;;;15.66;66.40;101714.38;1251135;23;631;-65
2023/05/16 03:16:56;;;;;;;;;;;;;;;15.65;65.85;101718.03;1250929;23;665;-65
2023/05/16 03:17:47;;;;;;;;;;;;;;;15.62;66.07;101722.66;1249488;23;811;-65
2023/05/16 03:18:37;;;;;;;;;;;;;;;15.62;66.16;101713.75;1251151;23;661;-65
2023/05/16 03:19:28;;;;;;;;;;;;;;;15.63;66.12;101716.31;1247731;23;674;-65
2023/05/16 03:20:18;;;;;;;;;;;;;;;15.65;65.97;101718.03;1247437;23;599;-65
2023/05/16 03:21:08;;;;;;;;;;;;;;;15.67;66.09;101721.47;1247830;23;671;-65
2023/05/16 03:21:59;;;;;;;;;;;;;;;15.66;65.83;101719.75;1246767;23;600;-65
2023/05/16 03:22:49;;;;;;;;;;;;;;;15.63;65.89;101723.53;1247083;23;630;-65
2023/05/16 03:23:40;;;;;;;;;;;;;;;15.65;65.76;101726.97;1251270;23;1877;-65
2023/05/16 03:24:30;;;;;;;;;;;;;;;15.68;66.12;101723.19;1251232;23;661;-65
2023/05/16 03:25:20;;;;;;;;;;;;;;;15.65;66.64;101723.41;1250942;23;630;-65
2023/05/16 03:26:11;;;;;;;;;;;;;;;15.65;66.65;101720.72;1251112;23;661;-65
2023/05/16 03:27:02;;;;;;;;;;;;;;;15.68;66.41;101718.69;1250858;23;646;-65
2023/05/16 03:27:53;;;;;;;;;;;;;;;15.72;66.14;101730.06;1250885;23;629;-65
2023/05/16 03:28:43;;;;;;;;;;;;;;;15.67;66.22;101726.84;1251140;23;629;-65
2023/05/16 03:29:34;;;;;;;;;;;;;;;15.68;65.91;101728.56;1250359;23;689;-65
2023/05/16 03:30:25;;;;;;;;;;;;;;;15.68;66.10;101736.63;1251084;23;629;-65
2023/05/16 03:31:15;;;;;;;;;;;;;;;15.67;65.95;101732.22;1251071;23;625;-66
2023/05/16 03:32:06;;;;;;;;;;;;;;;15.69;66.10;101724.91;1250879;23;633;-66
2023/05/16 03:32:56;;;;;;;;;;;;;;;15.68;66.13;101731.25;1251044;23;665;-66
2023/05/16 03:33:47;;;;;;;;;;;;;;;15.68;65.85;101725.88;1250973;23;625;-66
2023/05/16 03:34:37;;;;;;;;;;;;;;;15.70;65.91;101726.63;1246963;23;606;-66
2023/05/16 03:35:27;;;;;;;;;;;;;;;15.66;66.27;101730.50;1251018;23;653;-66
2023/05/16 03:36:18;;;;;;;;;;;;;;;15.64;65.75;101727.94;1251158;23;626;-65
2023/05/16 03:37:09;;;;;;;;;;;;;;;15.62;66.28;101730.72;1250739;23;656;-66
2023/05/16 03:38:00;;;;;;;;;;;;;;;15.65;66.14;101729.66;1246774;23;626;-66
2023/05/16 03:38:50;;;;;;;;;;;;;;;15.70;65.97;101732.00;1247022;23;737;-66
2023/05/16 03:39:41;;;;;;;;;;;;;;;15.73;66.01;101726.41;1251309;23;712;-66
2023/05/16 03:40:31;;;;;;;;;;;;;;;15.68;66.30;101731.25;1246959;23;643;-66
2023/05/16 03:41:21;;;;;;;;;;;;;;;15.69;66.17;101731.16;1250995;23;688;-66
2023/05/16 03:42:12;;;;;;;;;;;;;;;15.72;65.89;101730.94;1246819;23;697;-65
2023/05/16 03:43:02;;;;;;;;;;;;;;;15.66;66.39;101730.50;1251003;23;677;-65
2023/05/16 03:43:53;;;;;;;;;;;;;;;15.68;66.16;101729.44;1250192;23;638;-65
2023/05/16 03:44:43;;;;;;;;;;;;;;;15.68;66.25;101736.63;1251094;23;646;-65
2023/05/16 03:45:34;;;;;;;;;;;;;;;15.69;66.26;101732.97;1249377;23;639;-65
2023/05/16 03:46:24;;;;;;;;;;;;;;;15.68;66.17;101734.81;1251000;23;616;-65
2023/05/16 03:47:15;;;;;;;;;;;;;;;15.66;66.30;101733.19;1247277;23;665;-64
2023/05/16 03:48:05;;;;;;;;;;;;;;;15.63;66.64;101726.22;1250954;23;610;-65
2023/05/16 03:48:56;;;;;;;;;;;;;;;15.61;66.45;101734.38;1249267;23;1066;-65
2023/05/16 03:49:46;;;;;;;;;;;;;;;15.59;66.49;101736.31;1250830;23;665;-65
2023/05/16 03:50:36;;;;;;;;;;;;;;;15.56;66.67;101741.06;1251003;23;681;-65
2023/05/16 03:51:27;;;;;;;;;;;;;;;15.58;66.64;101737.31;1251092;23;662;-65
2023/05/16 03:52:17;;;;;;;;;;;;;;;15.61;66.61;101736.19;1250899;23;704;-65
2023/05/16 03:53:08;;;;;;;;;;;;;;;15.59;66.28;101735.44;1251221;23;665;-65
2023/05/16 03:53:59;;;;;;;;;;;;;;;15.60;66.47;101737.16;1250892;23;637;-65
2023/05/16 03:54:49;;;;;;;;;;;;;;;15.61;66.65;101742.44;1250875;23;647;-65
2023/05/16 03:55:40;;;;;;;;;;;;;;;15.59;66.21;101744.38;1250832;23;645;-65
2023/05/16 03:56:30;;;;;;;;;;;;;;;15.59;66.32;101744.38;1251140;23;524;-65
2023/05/16 03:57:21;;;;;;;;;;;;;;;15.57;66.35;101738.28;1250913;23;618;-65
2023/05/16 03:58:11;;;;;;;;;;;;;;;15.56;66.57;101741.94;1251000;23;662;-65
2023/05/16 03:59:02;;;;;;;;;;;;;;;15.61;66.02;101749.63;1251090;23;634;-65
2023/05/16 03:59:52;;;;;;;;;;;;;;;15.64;66.34;101738.69;1251033;23;633;-65
2023/05/16 04:00:44;;;;;;;;;;;;;;;15.65;66.02;101747.59;1250901;23;619;-65
2023/05/16 04:01:35;;;;;;;;;;;;;;;15.65;65.98;101739.53;1246778;23;664;-65
2023/05/16 04:02:25;;;;;;;;;;;;;;;15.60;66.55;101743.41;1250826;23;641;-65
2023/05/16 04:03:16;;;;;;;;;;;;;;;15.58;66.32;101739.13;1247308;23;650;-65
2023/05/16 04:04:06;;;;;;;;;;;;;;;15.56;66.56;101738.38;1251038;23;598;-65
2023/05/16 04:04:56;;;;;;;;;;;;;;;15.54;66.17;101738.47;1250979;23;621;-65
2023/05/16 04:05:47;;;;;;;;;;;;;;;15.55;66.62;101740.22;1251124;23;614;-65
2023/05/16 04:06:37;;;;;;;;;;;;;;;15.62;66.42;101746.84;1250986;23;617;-65
2023/05/16 04:07:28;;;;;;;;;;;;;;;15.66;66.27;101746.63;1249413;23;729;-65
2023/05/16 04:08:18;;;;;;;;;;;;;;;15.63;66.20;101745.88;1251092;23;661;-65
2023/05/16 04:09:09;;;;;;;;;;;;;;;15.65;66.16;101744.91;1250882;23;685;-65
2023/05/16 04:09:59;;;;;;;;;;;;;;;15.60;65.21;101747.91;1247281;23;728;-66
2023/05/16 04:10:50;;;;;;;;;;;;;;;15.52;66.44;101745.75;1247626;23;670;-65
2023/05/16 04:11:40;;;;;;;;;;;;;;;15.47;66.49;101747.91;1249405;23;595;-65
2023/05/16 04:12:30;;;;;;;;;;;;;;;15.51;66.48;101751.25;1250950;23;685;-66
2023/05/16 04:13:21;;;;;;;;;;;;;;;15.51;66.69;101744.03;1251134;23;683;-66
2023/05/16 04:14:11;;;;;;;;;;;;;;;15.54;66.54;101749.22;1247003;23;634;-66
2023/05/16 04:15:02;;;;;;;;;;;;;;;15.58;66.32;101744.50;1251040;23;634;-66
2023/05/16 04:15:53;;;;;;;;;;;;;;;15.59;66.24;101749.75;1250921;23;637;-66
2023/05/16 04:16:43;;;;;;;;;;;;;;;15.57;65.84;101751.72;1251170;23;638;-65
2023/05/16 04:17:33;;;;;;;;;;;;;;;15.58;66.10;101750.75;1250937;23;688;-66
2023/05/16 04:18:24;;;;;;;;;;;;;;;15.60;65.79;101746.09;1246797;23;671;-65
2023/05/16 04:19:14;;;;;;;;;;;;;;;15.60;66.04;101747.91;1251011;23;681;-66
2023/05/16 04:20:05;;;;;;;;;;;;;;;15.60;66.03;101747.91;1251120;23;661;-66
2023/05/16 04:20:56;;;;;;;;;;;;;;;15.60;66.16;101754.16;1251127;23;642;-66
2023/05/16 04:21:46;;;;;;;;;;;;;;;15.61;65.96;101753.19;1250940;23;621;-67
2023/05/16 04:22:37;;;;;;;;;;;;;;;15.57;66.21;101751.72;1250944;23;601;-66
2023/05/16 04:23:27;;;;;;;;;;;;;;;15.56;66.19;101747.31;1250939;23;1881;-66
2023/05/16 04:24:18;;;;;;;;;;;;;;;15.59;66.52;101748.88;1250892;23;616;-66
2023/05/16 04:25:08;;;;;;;;;;;;;;;15.60;66.33;101756.84;1251005;23;653;-65
2023/05/16 04:26:00;;;;;;;;;;;;;;;15.58;66.26;101749.88;1250913;23;654;-66
2023/05/16 04:26:51;;;;;;;;;;;;;;;15.54;66.26;101743.84;1250897;23;618;-66